Oakalla, Texas
Current Conditions -  °F | °C
As of 2:15 PM on Monday 24 Nov 2014 (Local Time) from KLZZ Reporting Station
Clear Clear  
Wind Chill: 60°   Ceiling: Unl
Heat Index: 60°   Visibility: 10mi
Dew Point: 23°   Wind: 8mph
Humidity: 24%   Direction: 360°N
Pressure: 30.06"   Gusts: NA
Location:  30.9326°N, 97.9996°W
Report Text: KLZZ 242015Z AUTO 36007KT 10SM CLR 16/M05 A3006 RMK AO2 T01581050
Loading
Personal Weather Stations






























Interactive Weather Map New forecast layout! Learn more

10-Day Weather Forecast

Advertisements
Track Severe Weather on mobile